createdAt,value
2018-09-01T00:00:27.056Z,67.9
2018-09-01T00:01:17.074Z,67.9
2018-09-01T00:02:06.906Z,67.9
2018-09-01T00:02:56.896Z,67.9
2018-09-01T00:03:47.591Z,67.9
2018-09-01T00:04:37.074Z,67.8
2018-09-01T00:05:27.701Z,67.8
2018-09-01T00:06:17.506Z,67.8
2018-09-01T00:07:07.256Z,67.8
2018-09-01T00:07:57.107Z,67.8
2018-09-01T00:08:47.408Z,67.8
2018-09-01T00:09:37.981Z,67.8
2018-09-01T00:10:28.138Z,67.8
2018-09-01T00:11:18.885Z,67.8
2018-09-01T00:12:07.923Z,67.8
2018-09-01T00:31:32.358Z,67.6
2018-09-01T00:32:22.370Z,67.6
2018-09-01T00:33:12.183Z,67.6
2018-09-01T00:34:01.940Z,67.6
2018-09-01T00:34:52.605Z,67.5
2018-09-01T00:35:41.790Z,67.6
2018-09-01T00:36:31.536Z,67.5
2018-09-01T00:37:22.534Z,67.5
2018-09-01T00:38:12.277Z,67.5
2018-09-01T00:39:02.077Z,67.5
2018-09-01T00:39:52.717Z,67.5
2018-09-01T00:40:42.183Z,67.5
2018-09-01T00:41:33.329Z,67.5
2018-09-01T00:42:21.998Z,67.4
2018-09-01T00:43:13.206Z,67.4
2018-09-01T00:44:03.266Z,67.4
2018-09-01T00:44:52.218Z,67.4
2018-09-01T00:45:42.916Z,67.4
2018-09-01T00:46:33.199Z,67.4
2018-09-01T00:47:23.006Z,67.4
2018-09-01T00:48:13.845Z,67.4
2018-09-01T00:49:02.818Z,67.4
2018-09-01T00:49:53.741Z,67.4
2018-09-01T00:50:43.218Z,67.4
2018-09-01T00:51:33.579Z,67.4
2018-09-01T00:52:23.653Z,67.4
2018-09-01T00:53:14.026Z,67.4
2018-09-01T00:54:03.813Z,67.4
2018-09-01T00:54:53.112Z,67.3
2018-09-01T00:55:43.910Z,67.3
2018-09-01T00:56:33.983Z,67.3
2018-09-01T00:57:23.740Z,67.3
2018-09-01T00:58:13.623Z,67.3
2018-09-01T00:59:03.997Z,67.3
2018-09-01T00:59:53.683Z,67.3
2018-09-01T01:00:43.690Z,67.3
2018-09-01T01:01:34.367Z,67.3
2018-09-01T01:02:23.955Z,67.3
2018-09-01T01:03:14.715Z,67.3
2018-09-01T01:04:04.582Z,67.3
2018-09-01T01:04:54.327Z,67.3
2018-09-01T01:05:44.670Z,67.3
2018-09-01T01:06:34.461Z,67.3
2018-09-01T01:07:25.058Z,67.3
2018-09-01T01:08:15.140Z,67.3
2018-09-01T01:09:05.214Z,67.2
2018-09-01T01:09:54.765Z,67.3
2018-09-01T01:10:44.817Z,67.2
2018-09-01T01:11:34.853Z,67.2
2018-09-01T01:12:25.735Z,67.2
2018-09-01T01:13:15.279Z,67.2
2018-09-01T01:14:05.349Z,67.2
2018-09-01T01:14:55.094Z,67.2
2018-09-01T01:15:45.179Z,67.1
2018-09-01T01:16:35.802Z,67.1
2018-09-01T01:17:25.954Z,67.1
2018-09-01T01:18:15.339Z,67.1
2018-09-01T01:19:05.186Z,67.1
2018-09-01T01:19:55.515Z,67.1
2018-09-01T01:20:45.591Z,67.1
2018-09-01T01:21:35.641Z,67.1
2018-09-01T01:22:25.719Z,67.1
2018-09-01T01:23:16.021Z,67.1
2018-09-01T01:24:06.156Z,67.1
2018-09-01T01:24:56.451Z,67.1
2018-09-01T01:25:46.511Z,67.1
2018-09-01T01:26:36.595Z,67
2018-09-01T01:27:26.636Z,67.1
2018-09-01T01:28:16.721Z,67
2018-09-01T01:29:06.859Z,67
2018-09-01T01:29:56.331Z,67
2018-09-01T01:30:46.354Z,67
2018-09-01T01:31:36.666Z,67
2018-09-01T01:32:26.713Z,67
2018-09-01T01:33:16.235Z,67
2018-09-01T01:34:06.858Z,66.9
2018-09-01T01:34:56.950Z,66.9
2018-09-01T01:35:46.746Z,66.9
2018-09-01T01:36:36.483Z,66.9
2018-09-01T01:37:27.428Z,66.9
2018-09-01T01:38:17.473Z,66.9
2018-09-01T01:39:07.810Z,66.9
2018-09-01T01:39:56.778Z,66.9
2018-09-01T01:40:47.422Z,66.9
2018-09-01T01:41:37.188Z,66.9
2018-09-01T01:42:26.948Z,66.9
2018-09-01T01:43:17.303Z,66.9
2018-09-01T01:44:07.093Z,66.9
2018-09-01T01:44:57.420Z,66.9
2018-09-01T01:45:48.060Z,66.9
2018-09-01T01:46:37.853Z,66.8
2018-09-01T01:47:27.657Z,66.8
2018-09-01T01:48:18.239Z,66.8
2018-09-01T01:49:07.214Z,66.8
2018-09-01T01:49:57.549Z,66.8
2018-09-01T01:50:48.175Z,66.8
2018-09-01T01:51:38.247Z,66.8
2018-09-01T01:52:27.470Z,66.8
2018-09-01T01:53:18.092Z,66.8
2018-09-01T01:54:07.882Z,66.8
2018-09-01T01:54:58.222Z,66.8
2018-09-01T01:55:48.925Z,66.8
2018-09-01T01:56:38.372Z,66.8
2018-09-01T01:57:28.685Z,66.8
2018-09-01T01:58:17.629Z,66.8
2018-09-01T01:59:08.827Z,66.8
2018-09-01T01:59:58.111Z,66.8
2018-09-01T02:00:48.937Z,66.7
2018-09-01T02:01:38.276Z,66.7
2018-09-01T02:02:28.619Z,66.7
2018-09-01T02:03:19.457Z,66.7
2018-09-01T02:04:09.035Z,66.7
2018-09-01T02:04:58.237Z,66.7
2018-09-01T02:05:48.583Z,66.7
2018-09-01T02:06:39.230Z,66.7
2018-09-01T02:07:29.506Z,66.6
2018-09-01T02:08:19.044Z,66.6
2018-09-01T02:09:09.121Z,66.6
2018-09-01T02:09:59.169Z,66.6
2018-09-01T02:10:49.520Z,66.6
2018-09-01T02:11:39.592Z,66.6
2018-09-01T02:12:29.661Z,66.6
2018-09-01T02:13:19.238Z,66.6
2018-09-01T02:14:10.091Z,66.6
2018-09-01T02:15:00.076Z,66.6
2018-09-01T02:15:49.832Z,66.6
2018-09-01T02:16:39.378Z,66.6
2018-09-01T02:17:29.943Z,66.6
2018-09-01T02:18:19.743Z,66.6
2018-09-01T02:19:10.913Z,66.5
2018-09-01T02:20:00.471Z,66.5
2018-09-01T02:20:49.926Z,66.5
2018-09-01T02:21:40.827Z,66.5
2018-09-01T02:22:30.348Z,66.5
2018-09-01T02:23:20.690Z,66.5
2018-09-01T02:24:10.770Z,66.5
2018-09-01T02:25:00.825Z,66.5
2018-09-01T02:25:50.624Z,66.4
2018-09-01T02:26:40.962Z,66.4
2018-09-01T02:27:30.782Z,66.4
2018-09-01T02:28:21.431Z,66.4
2018-09-01T02:29:10.596Z,66.4
2018-09-01T02:30:00.724Z,66.4
2018-09-01T02:30:50.799Z,66.4
2018-09-01T02:31:40.869Z,66.4
2018-09-01T02:32:30.978Z,66.4
2018-09-01T02:33:21.212Z,66.4
2018-09-01T02:34:11.281Z,66.4
2018-09-01T02:35:01.837Z,66.4
2018-09-01T02:35:51.377Z,66.4
2018-09-01T02:36:41.477Z,66.4
2018-09-01T02:37:32.105Z,66.4
2018-09-01T02:38:21.586Z,66.4
2018-09-01T02:39:11.340Z,66.3
2018-09-01T02:40:02.248Z,66.3
2018-09-01T02:40:51.482Z,66.3
2018-09-01T02:41:41.839Z,66.3
2018-09-01T02:42:31.331Z,66.3
2018-09-01T02:43:22.286Z,66.3
2018-09-01T02:44:12.030Z,66.3
2018-09-01T02:45:02.354Z,66.3
2018-09-01T02:45:52.161Z,66.3
2018-09-01T02:46:42.812Z,66.3
2018-09-01T02:47:31.696Z,66.3
2018-09-01T02:48:22.082Z,66.3
2018-09-01T02:49:12.413Z,66.3
2018-09-01T02:50:03.048Z,66.3
2018-09-01T02:50:52.555Z,66.3
2018-09-01T02:51:42.816Z,66.2
2018-09-01T02:52:32.666Z,66.2
2018-09-01T02:53:23.038Z,66.3
2018-09-01T02:54:12.783Z,66.3
2018-09-01T02:55:03.156Z,66.2
2018-09-01T02:55:53.502Z,66.2
2018-09-01T02:56:42.974Z,66.2
2018-09-01T02:57:33.348Z,66.2
2018-09-01T02:58:22.845Z,66.2
2018-09-01T02:59:13.725Z,66.1
2018-09-01T03:00:03.864Z,66.1
2018-09-01T03:00:53.882Z,66.1
2018-09-01T03:01:43.107Z,66.1
2018-09-01T03:02:33.432Z,66.1
2018-09-01T03:03:23.215Z,66.1
2018-09-01T03:04:13.851Z,66.1
2018-09-01T03:05:04.442Z,66.1
2018-09-01T03:05:53.658Z,66.1
2018-09-01T03:06:44.022Z,66.1
2018-09-01T03:07:33.568Z,66.1
2018-09-01T03:08:23.997Z,66.1
2018-09-01T03:09:13.975Z,66.1
2018-09-01T03:10:04.592Z,66.1
2018-09-01T03:10:55.123Z,66.1
2018-09-01T03:11:44.739Z,66.1
2018-09-01T03:12:34.553Z,66
2018-09-01T03:13:23.792Z,66
2018-09-01T03:14:14.146Z,66
2018-09-01T03:15:04.694Z,66
2018-09-01T03:15:55.499Z,66
2018-09-01T03:16:44.814Z,66
2018-09-01T03:17:34.882Z,66
2018-09-01T03:18:24.675Z,66
2018-09-01T03:19:15.029Z,66
2018-09-01T03:20:05.383Z,65.9
2018-09-01T03:20:55.385Z,65.9
2018-09-01T03:21:45.206Z,65.9
2018-09-01T03:22:34.551Z,65.9
2018-09-01T03:23:25.132Z,65.9
2018-09-01T03:24:14.403Z,65.9
2018-09-01T03:25:04.698Z,65.9
2018-09-01T03:25:55.316Z,65.9
2018-09-01T03:26:44.849Z,65.9
2018-09-01T03:27:35.483Z,65.9
2018-09-01T03:28:25.508Z,65.9
2018-09-01T03:29:15.278Z,65.9
2018-09-01T03:30:05.125Z,65.9
2018-09-01T03:30:55.718Z,65.9
2018-09-01T03:31:45.233Z,65.9
2018-09-01T03:32:35.560Z,65.9
2018-09-01T03:33:25.893Z,65.8
2018-09-01T03:34:15.459Z,65.8
2018-09-01T03:35:05.978Z,65.8
2018-09-01T03:35:57.156Z,65.8
2018-09-01T03:36:46.370Z,65.8
2018-09-01T03:37:36.456Z,65.8
2018-09-01T03:38:26.765Z,65.8
2018-09-01T03:39:15.737Z,65.8
2018-09-01T03:40:06.350Z,65.8
2018-09-01T03:40:56.715Z,65.8
2018-09-01T03:41:47.038Z,65.8
2018-09-01T03:42:36.498Z,65.8
2018-09-01T03:43:26.298Z,65.8
2018-09-01T03:44:16.373Z,65.8
2018-09-01T03:45:06.452Z,65.8
2018-09-01T03:45:56.488Z,65.8
2018-09-01T03:46:47.167Z,65.7
2018-09-01T03:47:36.970Z,65.7
2018-09-01T03:48:27.280Z,65.7
2018-09-01T03:49:17.317Z,65.7
2018-09-01T03:50:07.420Z,65.7
2018-09-01T03:50:57.172Z,65.7
2018-09-01T03:51:47.532Z,65.7
2018-09-01T03:52:37.308Z,65.6
2018-09-01T03:53:27.677Z,65.6
2018-09-01T03:54:17.450Z,65.6
2018-09-01T03:55:07.792Z,65.6
2018-09-01T03:55:57.847Z,65.6
2018-09-01T03:56:47.929Z,65.6
2018-09-01T03:57:37.971Z,65.6
2018-09-01T03:58:28.292Z,65.6
2018-09-01T03:59:17.838Z,65.6
2018-09-01T04:00:08.201Z,65.6
2018-09-01T04:00:57.965Z,65.6
2018-09-01T04:01:48.244Z,65.6
2018-09-01T04:02:38.383Z,65.6
2018-09-01T04:03:28.686Z,65.6
2018-09-01T04:04:18.234Z,65.6
2018-09-01T04:05:08.854Z,65.6
2018-09-01T04:05:58.869Z,65.6
2018-09-01T04:06:48.929Z,65.5
2018-09-01T04:07:39.037Z,65.5
2018-09-01T04:08:29.144Z,65.5
2018-09-01T04:09:19.151Z,65.5
2018-09-01T04:10:09.221Z,65.5
2018-09-01T04:10:58.206Z,65.5
2018-09-01T04:11:48.777Z,65.4
2018-09-01T04:12:39.113Z,65.4
2018-09-01T04:13:28.345Z,65.4
2018-09-01T04:14:19.791Z,65.4
2018-09-01T04:15:09.040Z,65.4
2018-09-01T04:15:59.346Z,65.4
2018-09-01T04:16:49.680Z,65.4
2018-09-01T04:17:39.796Z,65.4
2018-09-01T04:18:29.303Z,65.4
2018-09-01T04:19:19.673Z,65.4
2018-09-01T04:20:09.980Z,65.4
2018-09-01T04:20:59.757Z,65.4
2018-09-01T04:21:49.857Z,65.4
2018-09-01T04:22:40.216Z,65.4
2018-09-01T04:23:29.713Z,65.4
2018-09-01T04:24:19.488Z,65.4
2018-09-01T04:25:10.091Z,65.4
2018-09-01T04:26:00.145Z,65.4
2018-09-01T04:26:50.761Z,65.4
2018-09-01T04:27:40.299Z,65.3
2018-09-01T04:28:30.591Z,65.3
2018-09-01T04:29:20.452Z,65.3
2018-09-01T04:30:10.483Z,65.3
2018-09-01T04:31:00.798Z,65.3
2018-09-01T04:31:50.724Z,65.3
2018-09-01T04:32:40.670Z,65.3
2018-09-01T04:33:30.408Z,65.3
2018-09-01T04:34:20.518Z,65.3
2018-09-01T04:35:11.157Z,65.3
2018-09-01T04:36:00.922Z,65.3
2018-09-01T04:36:51.520Z,65.3
2018-09-01T04:37:41.066Z,65.3
2018-09-01T04:38:31.060Z,65.2
2018-09-01T04:39:21.182Z,65.2
2018-09-01T04:40:11.224Z,65.2
2018-09-01T04:41:00.755Z,65.2
2018-09-01T04:41:51.885Z,65.2
2018-09-01T04:42:40.832Z,65.2
2018-09-01T05:00:18.366Z,65
2018-09-01T05:01:11.707Z,65
2018-09-01T05:01:58.811Z,65
2018-09-01T05:02:49.197Z,65
2018-09-01T05:03:38.429Z,65
2018-09-01T05:04:29.330Z,65
2018-09-01T05:05:18.218Z,65
2018-09-01T05:06:09.673Z,64.9
2018-09-01T05:06:58.739Z,64.9
2018-09-01T05:07:49.269Z,64.9
2018-09-01T05:08:38.451Z,64.9
2018-09-01T05:09:29.409Z,64.9
2018-09-01T05:10:19.413Z,64.9
2018-09-01T05:11:09.501Z,64.9
2018-09-01T05:11:59.279Z,64.9
2018-09-01T05:12:49.619Z,64.9
2018-09-01T05:13:39.580Z,64.9
2018-09-01T05:14:30.323Z,64.9
2018-09-01T05:15:20.090Z,64.9
2018-09-01T05:16:09.657Z,64.9
2018-09-01T05:16:59.426Z,64.9
2018-09-01T05:17:50.283Z,64.9
2018-09-01T05:18:40.131Z,64.9
2018-09-01T05:19:30.708Z,64.8
2018-09-01T05:20:19.910Z,64.8
2018-09-01T05:21:09.690Z,64.8
2018-09-01T05:22:00.062Z,64.8
2018-09-01T05:22:50.672Z,64.8
2018-09-01T05:23:40.736Z,64.8
2018-09-01T05:24:30.840Z,64.8
2018-09-01T05:25:20.658Z,64.8
2018-09-01T05:26:10.741Z,64.8
2018-09-01T05:27:00.722Z,64.8
2018-09-01T05:27:51.056Z,64.8
2018-09-01T05:28:40.584Z,64.8
2018-09-01T05:29:30.999Z,64.8
2018-09-01T05:30:20.997Z,64.8
2018-09-01T05:31:11.556Z,64.8
2018-09-01T05:32:01.109Z,64.8
2018-09-01T05:32:50.759Z,64.7
2018-09-01T05:33:41.295Z,64.8
2018-09-01T05:34:31.112Z,64.7
2018-09-01T05:35:20.792Z,64.7
2018-09-01T05:36:11.242Z,64.7
2018-09-01T05:37:01.554Z,64.7
2018-09-01T05:37:51.348Z,64.7
2018-09-01T05:38:41.369Z,64.7
2018-09-01T05:39:31.995Z,64.7
2018-09-01T05:40:21.512Z,64.7
2018-09-01T05:41:11.791Z,64.6
2018-09-01T05:42:01.573Z,64.6
2018-09-01T05:42:51.742Z,64.6
2018-09-01T05:43:42.670Z,64.6
2018-09-01T05:44:32.093Z,64.6
2018-09-01T05:45:22.445Z,64.6
2018-09-01T05:46:11.977Z,64.6
2018-09-01T05:47:02.817Z,64.6
2018-09-01T05:47:52.343Z,64.6
2018-09-01T05:48:42.172Z,64.6
2018-09-01T05:49:31.758Z,64.6
2018-09-01T05:50:22.928Z,64.6
2018-09-01T05:51:12.683Z,64.6
2018-09-01T05:52:03.229Z,64.6
2018-09-01T05:52:52.777Z,64.6
2018-09-01T05:53:42.807Z,64.6
2018-09-01T05:54:32.890Z,64.5
2018-09-01T05:55:22.663Z,64.5
2018-09-01T05:56:12.192Z,64.5
2018-09-01T05:57:02.772Z,64.5
2018-09-01T05:57:53.403Z,64.5
2018-09-01T05:58:42.934Z,64.5
2018-09-01T05:59:33.819Z,64.5
2018-09-01T06:00:23.255Z,64.5
2018-09-01T06:01:12.896Z,64.4
2018-09-01T06:02:04.013Z,64.4
2018-09-01T06:02:54.078Z,64.4
2018-09-01T06:03:43.051Z,64.4
2018-09-01T06:04:33.349Z,64.4
2018-09-01T06:05:23.410Z,64.4
2018-09-01T06:06:15.626Z,64.4
2018-09-01T06:07:04.192Z,64.4
2018-09-01T06:07:53.911Z,64.4
2018-09-01T06:08:44.244Z,64.4
2018-09-01T06:09:34.589Z,64.4
2018-09-01T06:10:24.065Z,64.4
2018-09-01T06:11:14.415Z,64.4
2018-09-01T06:12:04.177Z,64.4
2018-09-01T06:12:54.754Z,64.4
2018-09-01T06:13:44.050Z,64.4
2018-09-01T06:14:34.117Z,64.3
2018-09-01T06:15:24.469Z,64.4
2018-09-01T06:16:13.818Z,64.3
2018-09-01T06:17:04.636Z,64.3
2018-09-01T06:17:56.069Z,64.3
2018-09-01T06:18:45.031Z,64.3
2018-09-01T06:19:34.306Z,64.3
2018-09-01T06:20:24.580Z,64.3
2018-09-01T06:21:14.371Z,64.3
2018-09-01T06:22:05.264Z,64.3
2018-09-01T06:22:55.578Z,64.3
2018-09-01T06:23:45.547Z,64.3
2018-09-01T06:24:35.215Z,64.3
2018-09-01T06:25:25.307Z,64.3
2018-09-01T06:26:15.024Z,64.3
2018-09-01T06:27:05.412Z,64.3
2018-09-01T06:27:55.749Z,64.3
2018-09-01T06:28:45.495Z,64.3
2018-09-01T06:29:35.893Z,64.3
2018-09-01T06:30:25.966Z,64.3
2018-09-01T06:31:15.938Z,64.2
2018-09-01T06:32:05.790Z,64.2
2018-09-01T06:32:56.655Z,64.2
2018-09-01T06:33:46.190Z,64.2
2018-09-01T06:34:35.747Z,64.2
2018-09-01T06:35:25.196Z,64.2
2018-09-01T06:36:16.154Z,64.1
2018-09-01T06:37:05.753Z,64.1
2018-09-01T06:37:56.516Z,64.1
2018-09-01T06:38:46.293Z,64.1
2018-09-01T06:39:36.120Z,64.1
2018-09-01T06:40:26.235Z,64.1
2018-09-01T06:41:15.972Z,64.1
2018-09-01T06:42:06.115Z,64.1
2018-09-01T06:42:57.596Z,64.1
2018-09-01T06:43:47.185Z,64.1
2018-09-01T06:44:36.715Z,64.1
2018-09-01T06:45:27.065Z,64.1
2018-09-01T06:46:16.285Z,64.1
2018-09-01T06:47:07.189Z,64.1
2018-09-01T06:47:56.722Z,64.1
2018-09-01T06:48:46.998Z,64.1
2018-09-01T06:49:37.111Z,64.1
2018-09-01T06:50:26.842Z,64
2018-09-01T06:51:17.229Z,64
2018-09-01T06:52:07.312Z,64
2018-09-01T06:52:57.074Z,64
2018-09-01T06:53:47.139Z,64
2018-09-01T06:54:37.565Z,64
2018-09-01T06:55:27.027Z,63.9
2018-09-01T06:56:17.340Z,64
2018-09-01T06:57:07.710Z,63.9
2018-09-01T06:57:57.706Z,63.9
2018-09-01T06:58:48.071Z,63.9
2018-09-01T06:59:37.596Z,63.9
2018-09-01T07:00:27.372Z,63.9
2018-09-01T07:01:18.313Z,63.9
2018-09-01T07:02:08.087Z,63.9
2018-09-01T07:02:57.857Z,63.9
2018-09-01T07:03:48.456Z,63.9
2018-09-01T07:04:38.289Z,63.9
2018-09-01T07:05:27.188Z,63.9
2018-09-01T07:06:18.426Z,63.9
2018-09-01T07:07:08.736Z,63.9
2018-09-01T07:07:57.663Z,63.9
2018-09-01T07:08:49.738Z,63.9
2018-09-01T07:09:38.593Z,63.9
2018-09-01T07:10:28.513Z,63.8
2018-09-01T07:11:18.766Z,63.9
2018-09-01T07:12:08.279Z,63.8
2018-09-01T07:12:58.672Z,63.8
2018-09-01T07:13:49.290Z,63.8
2018-09-01T07:14:39.051Z,63.8
2018-09-01T07:15:29.093Z,63.8
2018-09-01T07:16:19.170Z,63.8
2018-09-01T07:17:08.193Z,63.8
2018-09-01T07:17:59.030Z,63.8
2018-09-01T07:18:49.109Z,63.8
2018-09-01T07:19:39.415Z,63.8
2018-09-01T07:20:29.433Z,63.8
2018-09-01T07:21:19.850Z,63.8
2018-09-01T07:22:09.652Z,63.8
2018-09-01T07:22:59.721Z,63.8
2018-09-01T07:23:49.470Z,63.8
2018-09-01T07:24:40.085Z,63.8
2018-09-01T07:25:30.133Z,63.7
2018-09-01T07:26:19.980Z,63.8
2018-09-01T07:27:09.457Z,63.7
2018-09-01T07:27:59.785Z,63.7
2018-09-01T07:28:50.657Z,63.7
2018-09-01T07:29:40.477Z,63.7
2018-09-01T07:30:32.894Z,63.7
2018-09-01T07:31:24.448Z,63.7
2018-09-01T07:32:10.972Z,63.7
2018-09-01T07:33:00.547Z,63.7
2018-09-01T07:33:50.662Z,63.6
2018-09-01T07:34:40.060Z,63.7
2018-09-01T07:35:31.276Z,63.6
2018-09-01T07:36:20.259Z,63.6
2018-09-01T07:37:11.082Z,63.6
2018-09-01T07:38:00.836Z,63.6
2018-09-01T07:38:51.222Z,63.6
2018-09-01T07:39:40.709Z,63.6
2018-09-01T07:40:31.279Z,63.6
2018-09-01T07:41:21.116Z,63.6
2018-09-01T07:42:10.907Z,63.6
2018-09-01T07:43:00.759Z,63.6
2018-09-01T07:43:50.283Z,63.6
2018-09-01T07:44:41.071Z,63.6
2018-09-01T07:45:31.151Z,63.6
2018-09-01T07:46:21.010Z,63.6
2018-09-01T07:47:11.149Z,63.6
2018-09-01T07:48:01.624Z,63.6
2018-09-01T07:48:51.709Z,63.5
2018-09-01T07:49:41.789Z,63.5
2018-09-01T07:50:32.118Z,63.5
2018-09-01T07:51:21.661Z,63.5
2018-09-01T07:52:11.703Z,63.5
2018-09-01T07:53:02.267Z,63.5
2018-09-01T07:53:51.801Z,63.5
2018-09-01T07:54:42.854Z,63.4
2018-09-01T07:55:32.235Z,63.5
2018-09-01T07:56:22.985Z,63.4
2018-09-01T07:57:12.418Z,63.4
2018-09-01T07:58:02.431Z,63.4
2018-09-01T07:58:51.990Z,63.4
2018-09-01T07:59:42.779Z,63.4
2018-09-01T08:00:32.908Z,63.4
2018-09-01T08:01:22.692Z,63.4
2018-09-01T08:02:12.765Z,63.4
2018-09-01T08:03:01.997Z,63.4
2018-09-01T08:03:53.443Z,63.4
2018-09-01T08:04:42.755Z,63.4
2018-09-01T08:05:33.369Z,63.4
2018-09-01T08:06:23.380Z,63.4
2018-09-01T08:07:13.099Z,63.4
2018-09-01T08:08:03.487Z,63.4
2018-09-01T08:08:52.290Z,63.4
2018-09-01T08:09:43.577Z,63.3
2018-09-01T08:10:33.112Z,63.3
2018-09-01T08:11:23.479Z,63.3
2018-09-01T08:12:13.264Z,63.3
2018-09-01T08:13:03.665Z,63.3
2018-09-01T08:13:55.671Z,63.3
2018-09-01T08:14:45.667Z,63.3
2018-09-01T08:15:32.801Z,63.3
2018-09-01T08:16:25.254Z,63.3
2018-09-01T08:17:13.953Z,63.3
2018-09-01T08:18:04.007Z,63.3
2018-09-01T08:18:53.294Z,63.3
2018-09-01T08:19:44.074Z,63.3
2018-09-01T08:20:33.611Z,63.3
2018-09-01T08:21:24.266Z,63.3
2018-09-01T08:22:13.233Z,63.3
2018-09-01T08:23:04.076Z,63.3
2018-09-01T08:23:54.433Z,63.3
2018-09-01T08:24:44.528Z,63.3
2018-09-01T08:25:34.588Z,63.2
2018-09-01T08:26:24.380Z,63.2
2018-09-01T08:27:14.431Z,63.2
2018-09-01T08:28:05.058Z,63.2
2018-09-01T08:28:55.103Z,63.2
2018-09-01T08:29:44.323Z,63.2
2018-09-01T08:30:34.502Z,63.2
2018-09-01T08:31:24.237Z,63.2
2018-09-01T08:32:14.622Z,63.2
2018-09-01T08:33:04.862Z,63.1
2018-09-01T08:33:55.673Z,63.1
2018-09-01T08:34:45.592Z,63.1
2018-09-01T08:35:35.614Z,63.1
2018-09-01T08:36:25.132Z,63.1
2018-09-01T08:37:14.721Z,63.1
2018-09-01T08:38:05.531Z,63.1
2018-09-01T08:38:55.347Z,63.1
2018-09-01T08:39:45.364Z,63.1
2018-09-01T08:40:35.182Z,63.2
2018-09-01T08:41:25.785Z,63.2
2018-09-01T08:42:16.190Z,63.3
2018-09-01T08:43:05.702Z,63.3
2018-09-01T08:43:55.706Z,63.3
2018-09-01T08:44:46.139Z,63.4
2018-09-01T08:45:35.872Z,63.4
2018-09-01T08:46:25.924Z,63.5
2018-09-01T08:47:15.732Z,63.6
2018-09-01T08:48:06.321Z,63.6
2018-09-01T08:48:56.410Z,63.6
2018-09-01T08:49:46.479Z,63.7
2018-09-01T08:50:37.070Z,63.8
2018-09-01T08:51:26.594Z,63.8
2018-09-01T08:52:16.651Z,63.8
2018-09-01T08:53:06.702Z,63.8
2018-09-01T08:53:57.096Z,63.9
2018-09-01T08:54:46.365Z,63.9
2018-09-01T08:55:36.639Z,64
2018-09-01T08:56:27.032Z,64.1
2018-09-01T08:57:16.481Z,64.1
2018-09-01T08:58:07.421Z,64.2
2018-09-01T09:14:52.128Z,65.4
2018-09-01T09:15:55.582Z,65.5
2018-09-01T09:16:30.170Z,65.6
2018-09-01T09:17:20.805Z,65.6
2018-09-01T09:18:11.067Z,65.7
2018-09-01T09:19:01.484Z,65.8
2018-09-01T09:19:50.930Z,65.9
2018-09-01T09:20:41.880Z,65.9
2018-09-01T09:21:32.143Z,66
2018-09-01T09:22:21.449Z,66.1
2018-09-01T09:23:26.818Z,66.1
2018-09-01T09:24:02.967Z,66.2
2018-09-01T09:24:51.862Z,66.2
2018-09-01T09:25:41.665Z,66.3
2018-09-01T09:26:31.645Z,66.3
2018-09-01T09:27:22.506Z,66.4
2018-09-01T09:28:11.556Z,66.4
2018-09-01T09:29:01.889Z,66.5
2018-09-01T09:30:07.334Z,66.6
2018-09-01T09:30:43.197Z,66.7
2018-09-01T09:31:32.269Z,66.7
2018-09-01T09:32:22.803Z,66.8
2018-09-01T09:33:11.750Z,66.9
2018-09-01T09:34:02.709Z,67
2018-09-01T09:35:07.039Z,67
2018-09-01T09:35:57.156Z,67.1
2018-09-01T09:36:48.179Z,67.1
2018-09-01T09:37:23.115Z,67.2
2018-09-01T09:38:27.412Z,67.3
2018-09-01T09:39:02.498Z,67.3
2018-09-01T09:39:53.383Z,67.3
2018-09-01T09:40:43.586Z,67.4
2018-09-01T09:41:47.759Z,67.5
2018-09-01T09:42:23.950Z,67.6
2018-09-01T09:43:12.607Z,67.6
2018-09-01T09:44:03.168Z,67.7
2018-09-01T09:44:53.188Z,67.8
2018-09-01T09:45:43.763Z,67.8
2018-09-01T09:46:47.669Z,67.8
2018-09-01T09:47:23.661Z,68
2018-09-01T09:48:27.605Z,68.1
2018-09-01T09:49:03.808Z,68.1
2018-09-01T09:49:53.160Z,68.2
2018-09-01T09:50:58.308Z,68.3
2018-09-01T09:51:33.728Z,68.3
2018-09-01T09:52:39.204Z,68.3
2018-09-01T09:53:14.047Z,68.4
2018-09-01T09:54:03.942Z,68.4
2018-09-01T09:54:54.000Z,68.5
2018-09-01T09:55:44.307Z,68.6
2018-09-01T09:56:48.755Z,68.7
2018-09-01T09:57:23.914Z,68.8
2018-09-01T09:58:29.852Z,68.8
2018-09-01T09:59:04.327Z,68.8
2018-09-01T09:59:54.660Z,68.9
2018-09-01T10:00:44.387Z,68.9
2018-09-01T10:01:35.047Z,69
2018-09-01T10:02:25.142Z,69.1
2018-09-01T10:03:15.095Z,69.1
2018-09-01T10:04:05.197Z,69.2
2018-09-01T10:04:55.020Z,69.3
2018-09-01T10:05:45.565Z,69.4
2018-09-01T10:06:50.206Z,69.4
2018-09-01T10:07:24.647Z,69.5
2018-09-01T10:08:15.237Z,69.5
2018-09-01T10:09:05.151Z,69.6
2018-09-01T10:10:09.199Z,69.7
2018-09-01T10:10:44.984Z,69.8
2018-09-01T10:11:35.576Z,69.8
2018-09-01T10:12:25.677Z,69.9
2018-09-01T10:13:15.977Z,69.9
2018-09-01T10:14:05.744Z,70
2018-09-01T10:14:55.294Z,70.1
2018-09-01T10:15:46.147Z,70.1
2018-09-01T10:16:35.408Z,70.1
2018-09-01T10:17:26.336Z,70.2
2018-09-01T10:18:15.094Z,70.2
2018-09-01T10:19:05.911Z,70.3
2018-09-01T10:19:55.901Z,70.3
2018-09-01T10:20:46.518Z,70.4
2018-09-01T10:21:36.596Z,70.5
2018-09-01T10:22:41.071Z,70.6
2018-09-01T10:23:16.210Z,70.6
2018-09-01T10:24:20.372Z,70.7
2018-09-01T10:25:11.524Z,70.7
2018-09-01T10:25:46.618Z,70.8
2018-09-01T10:26:51.649Z,70.8
2018-09-01T10:27:26.256Z,70.9
2018-09-01T10:29:20.984Z,71
2018-09-01T10:29:57.290Z,71.1
2018-09-01T10:31:02.186Z,71.1
2018-09-01T10:31:37.337Z,71.3
2018-09-01T10:32:26.353Z,71.3
2018-09-01T10:33:17.303Z,71.3
2018-09-01T10:34:08.197Z,71.4
2018-09-01T10:34:56.943Z,71.4
2018-09-01T10:35:47.633Z,71.4
2018-09-01T10:36:37.735Z,71.5
2018-09-01T10:37:42.103Z,71.6
2018-09-01T10:38:33.517Z,71.7
2018-09-01T10:39:07.703Z,71.7
2018-09-01T10:39:58.030Z,71.7
2018-09-01T10:40:47.270Z,71.8
2018-09-01T10:41:37.636Z,71.9
2018-09-01T10:42:28.313Z,71.9
2018-09-01T10:43:19.053Z,71.9
2018-09-01T10:44:23.419Z,72
2018-09-01T10:45:12.836Z,72.1
2018-09-01T10:46:03.723Z,72.1
2018-09-01T10:46:38.031Z,72.1
2018-09-01T10:47:28.385Z,72.1
2018-09-01T10:48:48.002Z,72.2
2018-09-01T10:49:08.270Z,72.3
2018-09-01T10:49:58.850Z,72.3
2018-09-01T10:50:48.652Z,72.4
2018-09-01T10:51:53.085Z,72.4
2018-09-01T10:52:44.294Z,72.4
2018-09-01T10:53:18.857Z,72.5
2018-09-01T10:54:08.830Z,72.6
2018-09-01T10:54:59.422Z,72.6
2018-09-01T10:55:48.744Z,72.6
2018-09-01T10:56:39.274Z,72.6
2018-09-01T10:57:43.971Z,72.7
2018-09-01T10:58:19.627Z,72.8
2018-09-01T10:59:12.610Z,72.8
2018-09-01T10:59:59.538Z,72.9
2018-09-01T11:00:49.346Z,72.9
2018-09-01T11:01:54.049Z,72.9
2018-09-01T11:03:00.901Z,73
2018-09-01T11:03:19.032Z,73.1
2018-09-01T11:04:25.710Z,73.1
2018-09-01T11:04:59.717Z,73.1
2018-09-01T11:05:49.869Z,73.2
2018-09-01T11:06:54.546Z,73.2
2018-09-01T11:07:29.961Z,73.3
2018-09-01T11:08:19.745Z,73.3
2018-09-01T11:09:24.136Z,73.3
2018-09-01T11:09:59.904Z,73.4
2018-09-01T11:10:50.026Z,73.4
2018-09-01T11:11:39.729Z,73.4
2018-09-01T11:12:29.537Z,73.5
2018-09-01T11:13:19.647Z,73.5
2018-09-01T11:14:10.670Z,73.6
2018-09-01T11:14:59.670Z,73.6
2018-09-01T11:15:50.387Z,73.7
2018-09-01T11:16:40.242Z,73.7
2018-09-01T11:17:30.300Z,73.8
2018-09-01T11:18:20.872Z,73.8
2018-09-01T11:19:11.081Z,73.8
2018-09-01T11:20:01.339Z,73.9
2018-09-01T11:21:06.924Z,73.9
2018-09-01T11:21:41.909Z,74
2018-09-01T11:22:30.999Z,74
2018-09-01T11:23:35.342Z,74.1
2018-09-01T11:24:15.894Z,74.1
2018-09-01T11:25:06.886Z,74.1
2018-09-01T11:25:56.186Z,74.1
2018-09-01T11:26:45.716Z,74.2
2018-09-01T11:27:36.785Z,74.2
2018-09-01T11:28:26.632Z,74.2
2018-09-01T11:29:16.106Z,74.3
2018-09-01T11:30:06.023Z,74.3
2018-09-01T11:30:55.474Z,74.3
2018-09-01T11:32:01.513Z,74.4
2018-09-01T11:32:36.173Z,74.4
2018-09-01T11:34:16.865Z,74.5
2018-09-01T11:35:21.945Z,74.5
2018-09-01T11:35:56.485Z,74.5
2018-09-01T11:36:47.093Z,74.5
2018-09-01T11:37:37.065Z,74.6
2018-09-01T11:38:27.152Z,74.6
2018-09-01T11:39:17.438Z,74.6
2018-09-01T11:40:22.078Z,74.6
2018-09-01T11:40:56.992Z,74.7
2018-09-01T11:41:47.613Z,74.8
2018-09-01T11:42:38.759Z,74.8
2018-09-01T11:43:26.818Z,74.8
2018-09-01T11:44:31.828Z,74.8
2018-09-01T11:45:07.347Z,74.9
2018-09-01T11:46:12.148Z,74.9
2018-09-01T11:47:02.167Z,74.9
2018-09-01T11:47:37.379Z,74.9
2018-09-01T11:48:28.277Z,74.9
2018-09-01T11:49:18.190Z,75
2018-09-01T11:50:08.385Z,75
2018-09-01T11:50:58.635Z,75
2018-09-01T11:51:48.182Z,75.1
2018-09-01T11:52:38.480Z,75.1
2018-09-01T11:53:43.224Z,75.1
2018-09-01T11:54:32.752Z,75.1
2018-09-01T11:55:08.210Z,75.2
2018-09-01T11:55:57.975Z,75.2
2018-09-01T11:56:48.577Z,75.2
2018-09-01T11:57:38.406Z,75.3
2018-09-01T11:58:28.558Z,75.3
2018-09-01T11:59:33.210Z,75.3
2018-09-01T12:00:08.384Z,75.3
2018-09-01T12:01:13.342Z,75.3
2018-09-01T12:01:49.804Z,75.4